sensor_id;sensor_type;location;lat;lon;timestamp;pressure;altitude;pressure_sealevel;temperature;humidity
71643;BME280;59438;45.014;39.006;2023-04-30T10:04:12;100834.69;;;16.75;56.05
71643;BME280;59438;45.014;39.006;2023-04-30T10:06:39;100843.25;;;16.94;56.85
71643;BME280;59438;45.014;39.006;2023-04-30T10:09:08;100823.28;;;17.03;55.37
71643;BME280;59438;45.014;39.006;2023-04-30T10:11:35;100849.50;;;17.36;55.55
71643;BME280;59438;45.014;39.006;2023-04-30T10:14:07;100840.47;;;17.53;54.00
71643;BME280;59438;45.014;39.006;2023-04-30T10:16:41;100834.66;;;17.61;54.01
71643;BME280;59438;45.014;39.006;2023-04-30T10:19:13;100843.97;;;17.81;53.63
71643;BME280;59438;45.014;39.006;2023-04-30T10:21:41;100856.25;;;17.83;53.02
71643;BME280;59438;45.014;39.006;2023-04-30T10:24:09;100862.22;;;17.87;54.18
71643;BME280;59438;45.014;39.006;2023-04-30T10:26:36;100862.31;;;17.85;53.26
71643;BME280;59438;45.014;39.006;2023-04-30T10:29:04;100868.75;;;17.81;52.31
71643;BME280;59438;45.014;39.006;2023-04-30T10:31:32;100868.28;;;17.75;53.12
71643;BME280;59438;45.014;39.006;2023-04-30T10:34:05;100868.81;;;17.67;52.37
71643;BME280;59438;45.014;39.006;2023-04-30T10:36:39;100876.50;;;17.57;52.22
71643;BME280;59438;45.014;39.006;2023-04-30T10:39:08;100873.66;;;17.46;53.20
71643;BME280;59438;45.014;39.006;2023-04-30T10:41:34;100873.19;;;17.39;53.48
71643;BME280;59438;45.014;39.006;2023-04-30T10:44:01;100876.91;;;17.37;53.29
71643;BME280;59438;45.014;39.006;2023-04-30T10:46:28;100878.72;;;17.36;53.75
71643;BME280;59438;45.014;39.006;2023-04-30T10:48:54;100878.59;;;17.38;53.36
71643;BME280;59438;45.014;39.006;2023-04-30T10:51:21;100869.03;;;17.35;53.54
71643;BME280;59438;45.014;39.006;2023-04-30T10:53:50;100881.38;;;17.36;52.81
71643;BME280;59438;45.014;39.006;2023-04-30T10:56:30;100885.31;;;17.43;52.29
71643;BME280;59438;45.014;39.006;2023-04-30T10:58:58;100888.66;;;17.47;53.41
71643;BME280;59438;45.014;39.006;2023-04-30T11:01:25;100886.28;;;17.57;53.37
71643;BME280;59438;45.014;39.006;2023-04-30T11:04:05;100867.47;;;17.60;52.64
71643;BME280;59438;45.014;39.006;2023-04-30T11:06:53;100881.56;;;17.75;52.42
71643;BME280;59438;45.014;39.006;2023-04-30T11:09:34;100884.97;;;17.77;51.92
71643;BME280;59438;45.014;39.006;2023-04-30T11:12:01;100888.16;;;17.83;52.93
71643;BME280;59438;45.014;39.006;2023-04-30T11:14:31;100891.44;;;17.87;51.83
71643;BME280;59438;45.014;39.006;2023-04-30T11:16:58;100887.38;;;17.81;52.46
71643;BME280;59438;45.014;39.006;2023-04-30T11:19:26;100887.63;;;17.77;52.28
71643;BME280;59438;45.014;39.006;2023-04-30T11:22:15;100882.97;;;17.80;51.42
71643;BME280;59438;45.014;39.006;2023-04-30T11:24:59;100886.47;;;17.81;51.84
71643;BME280;59438;45.014;39.006;2023-04-30T11:27:28;100885.63;;;17.80;52.41
71643;BME280;59438;45.014;39.006;2023-04-30T11:29:56;100879.47;;;17.80;52.40
71643;BME280;59438;45.014;39.006;2023-04-30T11:32:24;100867.66;;;17.71;52.17
71643;BME280;59438;45.014;39.006;2023-04-30T11:34:50;100885.63;;;17.80;52.79
71643;BME280;59438;45.014;39.006;2023-04-30T11:37:19;100891.72;;;17.82;52.23
71643;BME280;59438;45.014;39.006;2023-04-30T11:39:46;100882.97;;;17.80;52.13
71643;BME280;59438;45.014;39.006;2023-04-30T11:42:17;100873.50;;;17.76;51.22
71643;BME280;59438;45.014;39.006;2023-04-30T11:44:43;100876.38;;;17.73;52.56
71643;BME280;59438;45.014;39.006;2023-04-30T11:47:10;100875.88;;;17.66;52.61
71643;BME280;59438;45.014;39.006;2023-04-30T11:49:36;100877.44;;;17.56;52.64
71643;BME280;59438;45.014;39.006;2023-04-30T11:52:03;100873.56;;;17.47;52.69
71643;BME280;59438;45.014;39.006;2023-04-30T11:54:30;100878.13;;;17.45;52.47
71643;BME280;59438;45.014;39.006;2023-04-30T11:56:57;100869.41;;;17.43;52.61
71643;BME280;59438;45.014;39.006;2023-04-30T11:59:25;100874.03;;;17.40;51.75
71643;BME280;59438;45.014;39.006;2023-04-30T12:01:52;100869.03;;;17.35;52.35
71643;BME280;59438;45.014;39.006;2023-04-30T12:04:19;100867.34;;;17.34;52.83
71643;BME280;59438;45.014;39.006;2023-04-30T12:06:45;100859.47;;;17.32;52.65
71643;BME280;59438;45.014;39.006;2023-04-30T12:09:11;100868.28;;;17.33;52.48
71643;BME280;59438;45.014;39.006;2023-04-30T12:11:38;100865.53;;;17.35;52.37
71643;BME280;59438;45.014;39.006;2023-04-30T12:14:06;100859.25;;;17.36;52.73
71643;BME280;59438;45.014;39.006;2023-04-30T12:16:44;100861.03;;;17.49;51.47
71643;BME280;59438;45.014;39.006;2023-04-30T12:19:11;100862.38;;;17.57;52.56
71643;BME280;59438;45.014;39.006;2023-04-30T12:21:38;100863.66;;;17.64;52.39
71643;BME280;59438;45.014;39.006;2023-04-30T12:24:06;100860.63;;;17.70;52.20
71643;BME280;59438;45.014;39.006;2023-04-30T12:26:35;100867.66;;;17.71;50.98
71643;BME280;59438;45.014;39.006;2023-04-30T12:29:03;100855.13;;;17.73;51.70
71643;BME280;59438;45.014;39.006;2023-04-30T12:31:31;100865.75;;;17.73;51.27
71643;BME280;59438;45.014;39.006;2023-04-30T12:34:02;100845.06;;;17.64;50.63
71643;BME280;59438;45.014;39.006;2023-04-30T12:36:30;100854.47;;;17.69;51.73
71643;BME280;59438;45.014;39.006;2023-04-30T12:39:06;100862.34;;;17.71;50.80
71643;BME280;59438;45.014;39.006;2023-04-30T12:41:36;100864.13;;;17.70;51.79
71643;BME280;59438;45.014;39.006;2023-04-30T12:44:19;100871.25;;;17.70;51.08
71643;BME280;59438;45.014;39.006;2023-04-30T12:46:46;100872.47;;;17.64;52.03
71643;BME280;59438;45.014;39.006;2023-04-30T12:49:23;100875.34;;;17.61;51.45
71643;BME280;59438;45.014;39.006;2023-04-30T12:51:49;100872.13;;;17.56;52.00
71643;BME280;59438;45.014;39.006;2023-04-30T12:54:24;100867.09;;;17.51;50.93
71643;BME280;59438;45.014;39.006;2023-04-30T12:57:01;100865.06;;;17.42;51.83
71643;BME280;59438;45.014;39.006;2023-04-30T12:59:28;100861.16;;;17.33;52.24
71643;BME280;59438;45.014;39.006;2023-04-30T13:01:54;100878.97;;;17.31;52.58
71643;BME280;59438;45.014;39.006;2023-04-30T13:04:22;100879.19;;;17.28;52.10
71643;BME280;59438;45.014;39.006;2023-04-30T13:06:48;100875.78;;;17.26;52.57
71643;BME280;59438;45.014;39.006;2023-04-30T13:09:15;100880.59;;;17.34;52.51
71643;BME280;59438;45.014;39.006;2023-04-30T13:11:41;100883.16;;;17.36;52.09
71643;BME280;59438;45.014;39.006;2023-04-30T13:14:08;100877.19;;;17.32;52.45
71643;BME280;59438;45.014;39.006;2023-04-30T13:16:34;100879.66;;;17.35;52.29
71643;BME280;59438;45.014;39.006;2023-04-30T13:19:00;100886.84;;;17.33;52.02
71643;BME280;59438;45.014;39.006;2023-04-30T13:21:28;100887.81;;;17.32;51.41
71643;BME280;59438;45.014;39.006;2023-04-30T13:23:55;100899.47;;;17.29;52.23
71643;BME280;59438;45.014;39.006;2023-04-30T13:26:21;100900.59;;;17.25;52.48
71643;BME280;59438;45.014;39.006;2023-04-30T13:28:47;100903.44;;;17.22;52.15
71643;BME280;59438;45.014;39.006;2023-04-30T13:31:14;100900.13;;;17.19;52.27
71643;BME280;59438;45.014;39.006;2023-04-30T13:33:40;100896.03;;;17.13;52.14
71643;BME280;59438;45.014;39.006;2023-04-30T13:36:07;100911.88;;;17.15;51.96
71643;BME280;59438;45.014;39.006;2023-04-30T13:38:34;100921.72;;;17.12;51.08
71643;BME280;59438;45.014;39.006;2023-04-30T13:41:01;100920.22;;;17.08;51.82
71643;BME280;59438;45.014;39.006;2023-04-30T13:43:27;100914.34;;;17.03;52.37
71643;BME280;59438;45.014;39.006;2023-04-30T13:45:54;100922.47;;;17.00;52.02
71643;BME280;59438;45.014;39.006;2023-04-30T13:48:20;100914.63;;;16.99;52.07
71643;BME280;59438;45.014;39.006;2023-04-30T13:50:46;100909.41;;;16.97;52.61
71643;BME280;59438;45.014;39.006;2023-04-30T13:53:13;100917.53;;;16.94;52.20
71643;BME280;59438;45.014;39.006;2023-04-30T13:55:41;100923.81;;;16.93;51.93
71643;BME280;59438;45.014;39.006;2023-04-30T13:58:07;100925.69;;;16.91;52.21
71643;BME280;59438;45.014;39.006;2023-04-30T14:00:33;100928.53;;;16.88;52.08
71643;BME280;59438;45.014;39.006;2023-04-30T14:03:00;100921.69;;;16.84;52.08
71643;BME280;59438;45.014;39.006;2023-04-30T14:05:26;100927.34;;;16.78;51.81
71643;BME280;59438;45.014;39.006;2023-04-30T14:07:53;100922.59;;;16.68;52.43
71643;BME280;59438;45.014;39.006;2023-04-30T14:10:19;100930.16;;;16.60;52.59
71643;BME280;59438;45.014;39.006;2023-04-30T14:12:47;100921.94;;;16.49;52.37
71643;BME280;59438;45.014;39.006;2023-04-30T14:15:13;100927.03;;;16.38;52.58
71643;BME280;59438;45.014;39.006;2023-04-30T14:17:40;100919.94;;;16.22;52.86
71643;BME280;59438;45.014;39.006;2023-04-30T14:20:07;100929.13;;;16.17;52.86
71643;BME280;59438;45.014;39.006;2023-04-30T14:22:34;100929.63;;;16.07;53.42
71643;BME280;59438;45.014;39.006;2023-04-30T14:25:00;100928.28;;;16.00;53.88
71643;BME280;59438;45.014;39.006;2023-04-30T14:27:27;100918.94;;;15.93;54.18
71643;BME280;59438;45.014;39.006;2023-04-30T14:29:54;100915.53;;;15.91;54.06
71643;BME280;59438;45.014;39.006;2023-04-30T14:32:23;100912.97;;;15.89;54.28
71643;BME280;59438;45.014;39.006;2023-04-30T14:34:50;100910.50;;;15.86;54.06
71643;BME280;59438;45.014;39.006;2023-04-30T14:37:16;100912.47;;;15.83;54.62
71643;BME280;59438;45.014;39.006;2023-04-30T14:39:43;100913.66;;;15.77;54.72
71643;BME280;59438;45.014;39.006;2023-04-30T14:42:10;100907.75;;;15.72;54.63
71643;BME280;59438;45.014;39.006;2023-04-30T14:44:36;100907.31;;;15.64;54.88
71643;BME280;59438;45.014;39.006;2023-04-30T14:47:04;100904.91;;;15.59;54.89
71643;BME280;59438;45.014;39.006;2023-04-30T14:49:30;100902.53;;;15.55;54.97
71643;BME280;59438;45.014;39.006;2023-04-30T14:51:57;100892.69;;;15.41;54.94
71643;BME280;59438;45.014;39.006;2023-04-30T14:54:23;100889.34;;;15.37;54.99
71643;BME280;59438;45.014;39.006;2023-04-30T14:56:50;100892.41;;;15.45;55.04
71643;BME280;59438;45.014;39.006;2023-04-30T14:59:17;100889.06;;;15.42;55.55
71643;BME280;59438;45.014;39.006;2023-04-30T15:01:43;100899.84;;;15.39;54.91
71643;BME280;59438;45.014;39.006;2023-04-30T15:04:11;100901.78;;;15.35;55.09
71643;BME280;59438;45.014;39.006;2023-04-30T15:06:37;100908.13;;;15.32;55.59
71643;BME280;59438;45.014;39.006;2023-04-30T15:09:03;100905.63;;;15.29;55.44
71643;BME280;59438;45.014;39.006;2023-04-30T15:11:30;100909.47;;;15.24;55.63
71643;BME280;59438;45.014;39.006;2023-04-30T15:13:56;100916.53;;;15.23;56.10
71643;BME280;59438;45.014;39.006;2023-04-30T15:16:23;100932.50;;;15.22;55.77
71643;BME280;59438;45.014;39.006;2023-04-30T15:18:49;100935.75;;;15.27;55.79
71643;BME280;59438;45.014;39.006;2023-04-30T15:21:17;100950.59;;;15.29;55.82
71643;BME280;59438;45.014;39.006;2023-04-30T15:23:43;100941.81;;;15.29;55.67
71643;BME280;59438;45.014;39.006;2023-04-30T15:26:10;100949.63;;;15.32;55.58
71643;BME280;59438;45.014;39.006;2023-04-30T15:28:36;100946.25;;;15.28;55.28
71643;BME280;59438;45.014;39.006;2023-04-30T15:31:03;100957.09;;;15.24;55.51
71643;BME280;59438;45.014;39.006;2023-04-30T15:33:29;100957.41;;;15.18;55.95
71643;BME280;59438;45.014;39.006;2023-04-30T15:35:55;100956.00;;;15.10;55.74
71643;BME280;59438;45.014;39.006;2023-04-30T15:38:23;100958.19;;;15.02;55.70
71643;BME280;59438;45.014;39.006;2023-04-30T15:40:50;100953.47;;;14.91;55.79
71643;BME280;59438;45.014;39.006;2023-04-30T15:43:16;100964.38;;;14.85;56.08
71643;BME280;59438;45.014;39.006;2023-04-30T15:45:43;100977.03;;;14.79;56.19
71643;BME280;59438;45.014;39.006;2023-04-30T15:48:09;100980.84;;;14.73;56.09
71643;BME280;59438;45.014;39.006;2023-04-30T15:50:35;100978.34;;;14.70;56.46
71643;BME280;59438;45.014;39.006;2023-04-30T15:53:02;100981.16;;;14.67;56.32
71643;BME280;59438;45.014;39.006;2023-04-30T15:55:30;100979.59;;;14.63;56.66
71643;BME280;59438;45.014;39.006;2023-04-30T15:57:56;100989.44;;;14.59;56.26
71643;BME280;59438;45.014;39.006;2023-04-30T16:00:22;100981.69;;;14.56;56.68
71643;BME280;59438;45.014;39.006;2023-04-30T16:02:49;100984.44;;;14.53;56.51
71643;BME280;59438;45.014;39.006;2023-04-30T16:05:15;100997.88;;;14.48;57.02
71643;BME280;59438;45.014;39.006;2023-04-30T16:07:41;100993.84;;;14.41;57.07
71643;BME280;59438;45.014;39.006;2023-04-30T16:10:09;100999.31;;;14.37;57.20
71643;BME280;59438;45.014;39.006;2023-04-30T16:12:37;100996.97;;;14.30;57.56
71643;BME280;59438;45.014;39.006;2023-04-30T16:15:04;101002.50;;;14.26;57.54
71643;BME280;59438;45.014;39.006;2023-04-30T16:17:30;100990.41;;;14.20;57.69
71643;BME280;59438;45.014;39.006;2023-04-30T16:19:57;100997.66;;;14.17;57.68
71643;BME280;59438;45.014;39.006;2023-04-30T16:22:23;100971.09;;;14.01;57.77
71643;BME280;59438;45.014;39.006;2023-04-30T16:24:49;100994.53;;;14.08;57.75
71643;BME280;59438;45.014;39.006;2023-04-30T16:27:16;100994.72;;;14.04;58.06
71643;BME280;59438;45.014;39.006;2023-04-30T16:29:44;100993.13;;;14.00;58.38
71643;BME280;59438;45.014;39.006;2023-04-30T16:32:10;100997.84;;;13.93;58.10
71643;BME280;59438;45.014;39.006;2023-04-30T16:34:36;100994.66;;;13.86;58.24
71643;BME280;59438;45.014;39.006;2023-04-30T16:37:03;100987.00;;;13.80;58.41
71643;BME280;59438;45.014;39.006;2023-04-30T16:39:30;100996.00;;;13.76;58.64
71643;BME280;59438;45.014;39.006;2023-04-30T16:41:56;101000.72;;;13.69;58.66
71643;BME280;59438;45.014;39.006;2023-04-30T16:44:23;101007.19;;;13.62;58.86
71643;BME280;59438;45.014;39.006;2023-04-30T16:46:50;101001.31;;;13.56;59.26
71643;BME280;59438;45.014;39.006;2023-04-30T16:49:17;100999.88;;;13.48;59.10
71643;BME280;59438;45.014;39.006;2023-04-30T16:51:43;100991.38;;;13.42;59.21
71643;BME280;59438;45.014;39.006;2023-04-30T16:54:09;100999.50;;;13.37;59.62
71643;BME280;59438;45.014;39.006;2023-04-30T16:56:36;100998.03;;;13.30;59.68
71643;BME280;59438;45.014;39.006;2023-04-30T16:59:02;100985.09;;;13.24;59.74
71643;BME280;59438;45.014;39.006;2023-04-30T17:01:28;100993.16;;;13.21;59.83
71643;BME280;59438;45.014;39.006;2023-04-30T17:03:56;100981.28;;;13.10;60.00
71643;BME280;59438;45.014;39.006;2023-04-30T17:06:23;100980.53;;;13.07;60.21
71643;BME280;59438;45.014;39.006;2023-04-30T17:08:49;100977.31;;;13.00;60.22
71643;BME280;59438;45.014;39.006;2023-04-30T17:11:15;100993.34;;;12.96;60.60
71643;BME280;59438;45.014;39.006;2023-04-30T17:13:42;100993.59;;;12.89;60.38
71643;BME280;59438;45.014;39.006;2023-04-30T17:16:08;100983.31;;;12.83;60.71
71643;BME280;59438;45.014;39.006;2023-04-30T17:18:34;100995.81;;;12.78;60.68
71643;BME280;59438;45.014;39.006;2023-04-30T17:21:02;100998.78;;;12.70;60.99
71643;BME280;59438;45.014;39.006;2023-04-30T17:23:29;101009.38;;;12.69;60.88
71643;BME280;59438;45.014;39.006;2023-04-30T17:25:55;101012.34;;;12.61;61.43
71643;BME280;59438;45.014;39.006;2023-04-30T17:28:21;101002.97;;;12.54;61.85
71643;BME280;59438;45.014;39.006;2023-04-30T17:30:48;101004.00;;;12.50;61.81
71643;BME280;59438;45.014;39.006;2023-04-30T17:33:14;101008.59;;;12.45;61.61
71643;BME280;59438;45.014;39.006;2023-04-30T17:35:41;101000.88;;;12.40;61.88
71643;BME280;59438;45.014;39.006;2023-04-30T17:38:09;101001.78;;;12.39;62.47
71643;BME280;59438;45.014;39.006;2023-04-30T17:40:35;101003.72;;;12.36;62.41
71643;BME280;59438;45.014;39.006;2023-04-30T17:43:02;101007.31;;;12.33;62.26
71643;BME280;59438;45.014;39.006;2023-04-30T17:45:28;101007.38;;;12.32;62.37
71643;BME280;59438;45.014;39.006;2023-04-30T17:47:54;101002.22;;;12.28;62.54
71643;BME280;59438;45.014;39.006;2023-04-30T17:50:21;100990.09;;;12.24;62.23
71643;BME280;59438;45.014;39.006;2023-04-30T17:52:47;101004.09;;;12.25;62.69
71643;BME280;59438;45.014;39.006;2023-04-30T17:55:15;100997.25;;;12.21;62.83
71643;BME280;59438;45.014;39.006;2023-04-30T17:57:41;101002.59;;;12.19;62.55
71643;BME280;59438;45.014;39.006;2023-04-30T18:00:08;101004.53;;;12.14;62.73
71643;BME280;59438;45.014;39.006;2023-04-30T18:02:35;101006.31;;;12.14;62.77
71643;BME280;59438;45.014;39.006;2023-04-30T18:05:02;101004.03;;;12.04;62.90
71643;BME280;59438;45.014;39.006;2023-04-30T18:07:28;101016.16;;;12.08;63.01
71643;BME280;59438;45.014;39.006;2023-04-30T18:09:55;101006.00;;;11.99;63.03
71643;BME280;59438;45.014;39.006;2023-04-30T18:12:22;101010.31;;;12.00;63.98
71643;BME280;59438;45.014;39.006;2023-04-30T18:14:49;101008.63;;;11.99;63.19
71643;BME280;59438;45.014;39.006;2023-04-30T18:17:15;101020.94;;;11.99;63.59
71643;BME280;59438;45.014;39.006;2023-04-30T18:19:41;101013.09;;;11.97;63.21
71643;BME280;59438;45.014;39.006;2023-04-30T18:22:08;101014.91;;;11.95;63.90
71643;BME280;59438;45.014;39.006;2023-04-30T18:24:35;101011.44;;;11.95;63.36
71643;BME280;59438;45.014;39.006;2023-04-30T18:27:01;100990.84;;;11.81;63.93
71643;BME280;59438;45.014;39.006;2023-04-30T18:29:30;101008.09;;;11.89;64.45
71643;BME280;59438;45.014;39.006;2023-04-30T18:31:56;100990.09;;;11.77;64.35
71643;BME280;59438;45.014;39.006;2023-04-30T18:34:23;101002.13;;;11.84;64.24
71643;BME280;59438;45.014;39.006;2023-04-30T18:36:50;100998.69;;;11.82;64.48
71643;BME280;59438;45.014;39.006;2023-04-30T18:39:17;101003.97;;;11.82;64.64
71643;BME280;59438;45.014;39.006;2023-04-30T18:41:43;100991.09;;;11.75;64.71
71643;BME280;59438;45.014;39.006;2023-04-30T18:44:10;100998.97;;;11.75;64.91
71643;BME280;59438;45.014;39.006;2023-04-30T18:46:38;101000.81;;;11.73;65.14
71643;BME280;59438;45.014;39.006;2023-04-30T18:49:04;100987.09;;;11.64;65.34
71643;BME280;59438;45.014;39.006;2023-04-30T18:51:31;101004.53;;;11.67;65.13
71643;BME280;59438;45.014;39.006;2023-04-30T18:53:57;101007.28;;;11.64;64.77
71643;BME280;59438;45.014;39.006;2023-04-30T18:56:24;101007.38;;;11.61;65.19
71643;BME280;59438;45.014;39.006;2023-04-30T18:58:50;101006.69;;;11.56;65.65
71643;BME280;59438;45.014;39.006;2023-04-30T19:01:17;101002.28;;;11.56;64.94
71643;BME280;59438;45.014;39.006;2023-04-30T19:03:44;101001.47;;;11.54;65.87
71643;BME280;59438;45.014;39.006;2023-04-30T19:06:11;101000.69;;;11.52;65.77
71643;BME280;59438;45.014;39.006;2023-04-30T19:08:37;101005.19;;;11.48;65.61
71643;BME280;59438;45.014;39.006;2023-04-30T19:11:03;101001.72;;;11.48;65.76
71643;BME280;59438;45.014;39.006;2023-04-30T19:13:30;101007.78;;;11.50;66.19
71643;BME280;59438;45.014;39.006;2023-04-30T19:15:56;100997.19;;;11.52;65.71
71643;BME280;59438;45.014;39.006;2023-04-30T19:18:23;101002.34;;;11.55;65.54
71643;BME280;59438;45.014;39.006;2023-04-30T19:20:57;100990.91;;;11.56;66.53
71643;BME280;59438;45.014;39.006;2023-04-30T19:23:27;100996.19;;;11.56;65.66
71643;BME280;59438;45.014;39.006;2023-04-30T19:25:53;100992.75;;;11.54;65.79
71643;BME280;59438;45.014;39.006;2023-04-30T19:28:20;100998.09;;;11.50;66.37
71643;BME280;59438;45.014;39.006;2023-04-30T19:30:46;101001.66;;;11.49;65.61
71643;BME280;59438;45.014;39.006;2023-04-30T19:33:16;100996.44;;;11.48;65.67
71643;BME280;59438;45.014;39.006;2023-04-30T19:35:46;100997.28;;;11.48;66.43
71643;BME280;59438;45.014;39.006;2023-04-30T19:38:14;100985.25;;;11.43;66.38
71643;BME280;59438;45.014;39.006;2023-04-30T19:40:45;100994.75;;;11.47;66.67
71643;BME280;59438;45.014;39.006;2023-04-30T19:43:11;100991.31;;;11.45;66.75
71643;BME280;59438;45.014;39.006;2023-04-30T19:45:42;101000.09;;;11.44;67.18
71643;BME280;59438;45.014;39.006;2023-04-30T19:48:09;100992.25;;;11.42;66.48
71643;BME280;59438;45.014;39.006;2023-04-30T19:50:39;100994.88;;;11.42;66.75
71643;BME280;59438;45.014;39.006;2023-04-30T19:53:05;101000.16;;;11.42;66.07
71643;BME280;59438;45.014;39.006;2023-04-30T19:55:33;100996.66;;;11.42;67.30
71643;BME280;59438;45.014;39.006;2023-04-30T19:58:00;100996.72;;;11.40;66.87
71643;BME280;59438;45.014;39.006;2023-04-30T20:00:26;100998.53;;;11.38;66.21
71643;BME280;59438;45.014;39.006;2023-04-30T20:02:52;100990.78;;;11.35;67.06
71643;BME280;59438;45.014;39.006;2023-04-30T20:05:19;100995.31;;;11.30;66.61
71643;BME280;59438;45.014;39.006;2023-04-30T20:07:45;101004.19;;;11.27;66.84
71643;BME280;59438;45.014;39.006;2023-04-30T20:10:12;101000.81;;;11.24;67.16
71643;BME280;59438;45.014;39.006;2023-04-30T20:12:40;100999.16;;;11.21;68.01
71643;BME280;59438;45.014;39.006;2023-04-30T20:15:07;100998.38;;;11.18;66.90
71643;BME280;59438;45.014;39.006;2023-04-30T20:17:33;100990.78;;;11.10;67.41
71643;BME280;59438;45.014;39.006;2023-04-30T20:20:00;100995.13;;;11.11;67.45
71643;BME280;59438;45.014;39.006;2023-04-30T20:22:26;100993.41;;;11.10;67.79
71643;BME280;59438;45.014;39.006;2023-04-30T20:24:52;100991.72;;;11.07;67.40
71643;BME280;59438;45.014;39.006;2023-04-30T20:27:19;100997.09;;;11.04;67.91
71643;BME280;59438;45.014;39.006;2023-04-30T20:29:46;100994.56;;;11.01;67.62
71643;BME280;59438;45.014;39.006;2023-04-30T20:32:14;100992.88;;;11.00;67.31
71643;BME280;59438;45.014;39.006;2023-04-30T20:34:40;100996.47;;;10.98;67.71
71643;BME280;59438;45.014;39.006;2023-04-30T20:37:07;100997.34;;;10.97;67.42
71643;BME280;59438;45.014;39.006;2023-04-30T20:39:33;100996.56;;;10.95;67.86
71643;BME280;59438;45.014;39.006;2023-04-30T20:42:00;100991.41;;;10.92;67.45
71643;BME280;59438;45.014;39.006;2023-04-30T20:44:26;100994.09;;;10.90;67.70
71643;BME280;59438;45.014;39.006;2023-04-30T20:46:54;100997.59;;;10.89;68.66
71643;BME280;59438;45.014;39.006;2023-04-30T20:49:20;100991.50;;;10.88;67.89
71643;BME280;59438;45.014;39.006;2023-04-30T20:51:47;100994.16;;;10.87;68.02
71643;BME280;59438;45.014;39.006;2023-04-30T20:54:13;100998.69;;;10.83;68.33
71643;BME280;59438;45.014;39.006;2023-04-30T20:56:39;100995.25;;;10.81;68.48
71643;BME280;59438;45.014;39.006;2023-04-30T20:59:06;100993.56;;;10.79;68.16
71643;BME280;59438;45.014;39.006;2023-04-30T21:01:32;100997.16;;;10.76;68.29
71643;BME280;59438;45.014;39.006;2023-04-30T21:04:01;100994.66;;;10.73;68.87
71643;BME280;59438;45.014;39.006;2023-04-30T21:06:27;101006.91;;;10.73;68.91
71643;BME280;59438;45.014;39.006;2023-04-30T21:08:53;101003.47;;;10.71;69.07
71643;BME280;59438;45.014;39.006;2023-04-30T21:11:20;100999.22;;;10.66;69.20
71643;BME280;59438;45.014;39.006;2023-04-30T21:13:46;101001.94;;;10.65;69.48
71643;BME280;59438;45.014;39.006;2023-04-30T21:16:13;101007.25;;;10.62;68.74
71643;BME280;59438;45.014;39.006;2023-04-30T21:18:39;101000.31;;;10.61;69.44
71643;BME280;59438;45.014;39.006;2023-04-30T21:21:07;101002.06;;;10.60;70.07
71643;BME280;59438;45.014;39.006;2023-04-30T21:23:33;101005.56;;;10.61;68.85
71643;BME280;59438;45.014;39.006;2023-04-30T21:26:00;101004.59;;;10.63;69.49
71643;BME280;59438;45.014;39.006;2023-04-30T21:28:26;101001.94;;;10.65;69.51
71643;BME280;59438;45.014;39.006;2023-04-30T21:30:52;101003.59;;;10.67;68.96
71643;BME280;59438;45.014;39.006;2023-04-30T21:33:20;101002.63;;;10.70;68.64
71643;BME280;59438;45.014;39.006;2023-04-30T21:35:46;101001.66;;;10.73;68.20
71643;BME280;59438;45.014;39.006;2023-04-30T21:38:14;100997.16;;;10.76;69.27
71643;BME280;59438;45.014;39.006;2023-04-30T21:40:42;100993.69;;;10.76;69.25
71643;BME280;59438;45.014;39.006;2023-04-30T21:43:08;100998.75;;;10.82;68.93
71643;BME280;59438;45.014;39.006;2023-04-30T21:45:34;101003.06;;;10.83;68.36
71643;BME280;59438;45.014;39.006;2023-04-30T21:48:01;101010.88;;;10.86;68.25
71643;BME280;59438;45.014;39.006;2023-04-30T21:50:27;100996.81;;;10.87;68.76
71643;BME280;59438;45.014;39.006;2023-04-30T21:52:57;100992.31;;;10.91;68.38
71643;BME280;59438;45.014;39.006;2023-04-30T21:55:25;100980.81;;;10.93;68.40
71643;BME280;59438;45.014;39.006;2023-04-30T21:57:51;100987.81;;;10.94;68.06
71643;BME280;59438;45.014;39.006;2023-04-30T22:00:18;100986.00;;;10.96;68.84
71643;BME280;59438;45.014;39.006;2023-04-30T22:02:44;100984.22;;;10.97;68.59
71643;BME280;59438;45.014;39.006;2023-04-30T22:05:11;100986.81;;;10.98;68.84
71643;BME280;59438;45.014;39.006;2023-04-30T22:07:38;100989.44;;;10.98;68.79
71643;BME280;59438;45.014;39.006;2023-04-30T22:10:05;100984.16;;;10.98;68.17
71643;BME280;59438;45.014;39.006;2023-04-30T22:12:34;100982.41;;;10.99;68.14
71643;BME280;59438;45.014;39.006;2023-04-30T22:15:00;100974.50;;;10.99;68.58
71643;BME280;59438;45.014;39.006;2023-04-30T22:17:27;100976.28;;;10.98;68.75
71643;BME280;59438;45.014;39.006;2023-04-30T22:19:53;100980.69;;;10.98;68.52
71643;BME280;59438;45.014;39.006;2023-04-30T22:22:19;100970.22;;;10.96;68.27
71643;BME280;59438;45.014;39.006;2023-04-30T22:24:46;100971.13;;;10.95;68.18
71643;BME280;59438;45.014;39.006;2023-04-30T22:27:12;100980.81;;;10.93;68.06
71643;BME280;59438;45.014;39.006;2023-04-30T22:29:41;100966.03;;;10.91;68.32
71643;BME280;59438;45.014;39.006;2023-04-30T22:32:07;100974.75;;;10.91;68.46
71643;BME280;59438;45.014;39.006;2023-04-30T22:34:37;100981.00;;;10.88;68.40
71643;BME280;59438;45.014;39.006;2023-04-30T22:37:03;100984.53;;;10.87;68.55
71643;BME280;59438;45.014;39.006;2023-04-30T22:39:30;100985.47;;;10.85;67.99
71643;BME280;59438;45.014;39.006;2023-04-30T22:41:56;100977.69;;;10.83;68.46
71643;BME280;59438;45.014;39.006;2023-04-30T22:44:23;100990.84;;;10.82;68.54